sensor_id;sensor_type;location;lat;lon;timestamp;P1;durP1;ratioP1;P2;durP2;ratioP2
48092;SDS011;33873;47.442;18.902;2023-04-29T00:01:46;13.70;;;6.85;;
48092;SDS011;33873;47.442;18.902;2023-04-29T00:04:15;18.55;;;6.78;;
48092;SDS011;33873;47.442;18.902;2023-04-29T00:06:43;12.05;;;4.43;;
48092;SDS011;33873;47.442;18.902;2023-04-29T00:09:10;11.38;;;5.37;;
48092;SDS011;33873;47.442;18.902;2023-04-29T00:11:38;7.32;;;3.83;;
48092;SDS011;33873;47.442;18.902;2023-04-29T00:14:05;9.55;;;4.90;;
48092;SDS011;33873;47.442;18.902;2023-04-29T00:16:33;12.50;;;5.97;;
48092;SDS011;33873;47.442;18.902;2023-04-29T00:19:01;7.50;;;4.78;;
48092;SDS011;33873;47.442;18.902;2023-04-29T00:21:28;9.93;;;4.53;;
48092;SDS011;33873;47.442;18.902;2023-04-29T00:23:56;9.40;;;4.87;;
48092;SDS011;33873;47.442;18.902;2023-04-29T00:26:24;8.23;;;3.85;;
48092;SDS011;33873;47.442;18.902;2023-04-29T00:28:52;9.43;;;5.12;;
48092;SDS011;33873;47.442;18.902;2023-04-29T00:31:19;9.00;;;4.55;;
48092;SDS011;33873;47.442;18.902;2023-04-29T00:33:48;27.65;;;4.95;;
48092;SDS011;33873;47.442;18.902;2023-04-29T00:36:15;14.63;;;6.62;;
48092;SDS011;33873;47.442;18.902;2023-04-29T00:38:43;9.65;;;4.87;;
48092;SDS011;33873;47.442;18.902;2023-04-29T00:41:10;12.15;;;4.80;;
48092;SDS011;33873;47.442;18.902;2023-04-29T00:43:38;9.63;;;4.68;;
48092;SDS011;33873;47.442;18.902;2023-04-29T00:46:05;13.57;;;7.15;;
48092;SDS011;33873;47.442;18.902;2023-04-29T00:48:33;26.52;;;6.90;;
48092;SDS011;33873;47.442;18.902;2023-04-29T00:51:01;17.62;;;5.28;;
48092;SDS011;33873;47.442;18.902;2023-04-29T00:53:30;10.60;;;4.72;;
48092;SDS011;33873;47.442;18.902;2023-04-29T00:55:58;15.05;;;4.93;;
48092;SDS011;33873;47.442;18.902;2023-04-29T00:58:27;12.65;;;5.30;;
48092;SDS011;33873;47.442;18.902;2023-04-29T01:01:00;13.85;;;4.95;;
48092;SDS011;33873;47.442;18.902;2023-04-29T01:03:28;10.23;;;5.85;;
48092;SDS011;33873;47.442;18.902;2023-04-29T01:06:17;14.18;;;5.05;;
48092;SDS011;33873;47.442;18.902;2023-04-29T01:08:56;20.12;;;5.97;;
48092;SDS011;33873;47.442;18.902;2023-04-29T01:11:29;8.27;;;4.28;;
48092;SDS011;33873;47.442;18.902;2023-04-29T01:14:02;8.68;;;4.53;;
48092;SDS011;33873;47.442;18.902;2023-04-29T01:16:45;6.50;;;3.97;;
48092;SDS011;33873;47.442;18.902;2023-04-29T01:19:28;9.80;;;4.60;;
48092;SDS011;33873;47.442;18.902;2023-04-29T01:22:00;10.30;;;4.55;;
48092;SDS011;33873;47.442;18.902;2023-04-29T01:24:28;7.68;;;3.50;;
48092;SDS011;33873;47.442;18.902;2023-04-29T01:27:01;9.93;;;5.80;;
48092;SDS011;33873;47.442;18.902;2023-04-29T01:32:22;10.70;;;4.60;;
48092;SDS011;33873;47.442;18.902;2023-04-29T01:37:47;8.43;;;4.85;;
48092;SDS011;33873;47.442;18.902;2023-04-29T01:40:19;9.50;;;4.37;;
48092;SDS011;33873;47.442;18.902;2023-04-29T01:45:21;9.23;;;4.47;;
48092;SDS011;33873;47.442;18.902;2023-04-29T01:47:49;9.48;;;4.00;;
48092;SDS011;33873;47.442;18.902;2023-04-29T01:50:19;10.35;;;5.05;;
48092;SDS011;33873;47.442;18.902;2023-04-29T01:52:48;5.82;;;3.83;;
48092;SDS011;33873;47.442;18.902;2023-04-29T01:55:15;5.20;;;3.17;;
48092;SDS011;33873;47.442;18.902;2023-04-29T01:57:43;7.40;;;3.60;;
48092;SDS011;33873;47.442;18.902;2023-04-29T02:00:12;5.53;;;3.20;;
48092;SDS011;33873;47.442;18.902;2023-04-29T02:02:40;5.80;;;3.70;;
48092;SDS011;33873;47.442;18.902;2023-04-29T02:05:08;9.02;;;4.12;;
48092;SDS011;33873;47.442;18.902;2023-04-29T02:07:38;8.13;;;4.50;;
48092;SDS011;33873;47.442;18.902;2023-04-29T02:10:06;15.48;;;4.00;;
48092;SDS011;33873;47.442;18.902;2023-04-29T02:12:35;7.20;;;3.00;;
48092;SDS011;33873;47.442;18.902;2023-04-29T02:15:03;12.07;;;3.42;;
48092;SDS011;33873;47.442;18.902;2023-04-29T02:17:32;13.50;;;4.93;;
48092;SDS011;33873;47.442;18.902;2023-04-29T02:20:00;14.02;;;3.85;;
48092;SDS011;33873;47.442;18.902;2023-04-29T02:22:27;7.72;;;3.55;;
48092;SDS011;33873;47.442;18.902;2023-04-29T02:24:56;9.52;;;4.45;;
48092;SDS011;33873;47.442;18.902;2023-04-29T02:27:24;14.23;;;4.18;;
48092;SDS011;33873;47.442;18.902;2023-04-29T02:29:53;8.00;;;5.07;;
48092;SDS011;33873;47.442;18.902;2023-04-29T02:32:21;5.95;;;3.55;;
48092;SDS011;33873;47.442;18.902;2023-04-29T02:34:49;4.62;;;2.83;;
48092;SDS011;33873;47.442;18.902;2023-04-29T02:37:16;8.40;;;3.85;;
48092;SDS011;33873;47.442;18.902;2023-04-29T02:39:45;11.20;;;3.72;;
48092;SDS011;33873;47.442;18.902;2023-04-29T02:42:13;16.48;;;3.75;;
48092;SDS011;33873;47.442;18.902;2023-04-29T02:44:40;10.85;;;4.50;;
48092;SDS011;33873;47.442;18.902;2023-04-29T02:47:08;5.25;;;3.60;;
48092;SDS011;33873;47.442;18.902;2023-04-29T02:49:37;13.57;;;4.30;;
48092;SDS011;33873;47.442;18.902;2023-04-29T02:52:04;8.38;;;4.00;;
48092;SDS011;33873;47.442;18.902;2023-04-29T02:54:32;8.45;;;3.90;;
48092;SDS011;33873;47.442;18.902;2023-04-29T02:56:59;8.07;;;3.60;;
48092;SDS011;33873;47.442;18.902;2023-04-29T02:59:27;8.20;;;3.95;;
48092;SDS011;33873;47.442;18.902;2023-04-29T03:01:54;7.68;;;4.10;;
48092;SDS011;33873;47.442;18.902;2023-04-29T03:04:22;11.43;;;4.07;;
48092;SDS011;33873;47.442;18.902;2023-04-29T03:06:50;17.70;;;5.40;;
48092;SDS011;33873;47.442;18.902;2023-04-29T03:09:17;11.40;;;2.53;;
48092;SDS011;33873;47.442;18.902;2023-04-29T03:11:45;7.47;;;4.45;;
48092;SDS011;33873;47.442;18.902;2023-04-29T03:14:12;17.80;;;4.87;;
48092;SDS011;33873;47.442;18.902;2023-04-29T03:16:40;9.95;;;3.72;;
48092;SDS011;33873;47.442;18.902;2023-04-29T03:19:09;7.78;;;3.47;;
48092;SDS011;33873;47.442;18.902;2023-04-29T03:21:36;12.73;;;5.47;;
48092;SDS011;33873;47.442;18.902;2023-04-29T03:24:04;14.13;;;5.15;;
48092;SDS011;33873;47.442;18.902;2023-04-29T03:26:32;10.60;;;5.97;;
48092;SDS011;33873;47.442;18.902;2023-04-29T03:28:59;13.10;;;4.28;;
48092;SDS011;33873;47.442;18.902;2023-04-29T03:31:27;13.10;;;5.68;;
48092;SDS011;33873;47.442;18.902;2023-04-29T03:33:55;12.18;;;5.75;;
48092;SDS011;33873;47.442;18.902;2023-04-29T03:36:22;15.20;;;5.12;;
48092;SDS011;33873;47.442;18.902;2023-04-29T03:38:50;9.00;;;4.65;;
48092;SDS011;33873;47.442;18.902;2023-04-29T03:41:18;19.55;;;6.03;;
48092;SDS011;33873;47.442;18.902;2023-04-29T03:43:46;11.75;;;5.70;;
48092;SDS011;33873;47.442;18.902;2023-04-29T03:46:13;10.05;;;5.40;;
48092;SDS011;33873;47.442;18.902;2023-04-29T03:48:41;10.82;;;5.05;;
48092;SDS011;33873;47.442;18.902;2023-04-29T03:51:09;7.97;;;4.18;;
48092;SDS011;33873;47.442;18.902;2023-04-29T03:53:37;14.40;;;4.78;;
48092;SDS011;33873;47.442;18.902;2023-04-29T03:56:05;13.23;;;5.00;;
48092;SDS011;33873;47.442;18.902;2023-04-29T03:58:33;5.85;;;3.20;;
48092;SDS011;33873;47.442;18.902;2023-04-29T04:01:00;24.42;;;5.37;;
48092;SDS011;33873;47.442;18.902;2023-04-29T04:03:30;11.35;;;5.53;;
48092;SDS011;33873;47.442;18.902;2023-04-29T04:05:58;18.50;;;5.25;;
48092;SDS011;33873;47.442;18.902;2023-04-29T04:08:27;9.90;;;5.32;;
48092;SDS011;33873;47.442;18.902;2023-04-29T04:10:54;9.85;;;4.37;;
48092;SDS011;33873;47.442;18.902;2023-04-29T04:13:29;6.70;;;3.80;;
48092;SDS011;33873;47.442;18.902;2023-04-29T04:15:57;9.20;;;4.72;;
48092;SDS011;33873;47.442;18.902;2023-04-29T04:18:25;12.50;;;4.10;;
48092;SDS011;33873;47.442;18.902;2023-04-29T04:20:52;7.68;;;3.70;;
48092;SDS011;33873;47.442;18.902;2023-04-29T04:23:20;11.95;;;5.43;;
48092;SDS011;33873;47.442;18.902;2023-04-29T04:25:47;19.08;;;5.07;;
48092;SDS011;33873;47.442;18.902;2023-04-29T04:28:16;9.80;;;4.43;;
48092;SDS011;33873;47.442;18.902;2023-04-29T04:30:44;20.10;;;6.18;;
48092;SDS011;33873;47.442;18.902;2023-04-29T04:33:12;9.68;;;4.57;;
48092;SDS011;33873;47.442;18.902;2023-04-29T04:35:41;11.93;;;4.45;;
48092;SDS011;33873;47.442;18.902;2023-04-29T04:38:09;14.95;;;5.10;;
48092;SDS011;33873;47.442;18.902;2023-04-29T04:40:41;22.02;;;5.75;;
48092;SDS011;33873;47.442;18.902;2023-04-29T04:43:10;17.10;;;5.70;;
48092;SDS011;33873;47.442;18.902;2023-04-29T04:45:39;12.98;;;4.95;;
48092;SDS011;33873;47.442;18.902;2023-04-29T04:48:06;9.45;;;4.37;;
48092;SDS011;33873;47.442;18.902;2023-04-29T04:50:35;13.62;;;5.87;;
48092;SDS011;33873;47.442;18.902;2023-04-29T04:53:02;9.23;;;4.65;;
48092;SDS011;33873;47.442;18.902;2023-04-29T04:55:31;11.50;;;5.93;;
48092;SDS011;33873;47.442;18.902;2023-04-29T04:58:00;14.07;;;6.37;;
48092;SDS011;33873;47.442;18.902;2023-04-29T05:00:27;9.43;;;4.07;;
48092;SDS011;33873;47.442;18.902;2023-04-29T05:02:55;8.88;;;4.03;;
48092;SDS011;33873;47.442;18.902;2023-04-29T05:05:23;10.32;;;4.70;;
48092;SDS011;33873;47.442;18.902;2023-04-29T05:07:50;9.40;;;5.30;;
48092;SDS011;33873;47.442;18.902;2023-04-29T05:10:19;8.95;;;3.97;;
48092;SDS011;33873;47.442;18.902;2023-04-29T05:12:47;10.63;;;3.85;;
48092;SDS011;33873;47.442;18.902;2023-04-29T05:15:14;6.28;;;3.53;;
48092;SDS011;33873;47.442;18.902;2023-04-29T05:17:43;11.73;;;3.55;;
48092;SDS011;33873;47.442;18.902;2023-04-29T05:20:11;3.78;;;2.75;;
48092;SDS011;33873;47.442;18.902;2023-04-29T05:22:38;7.75;;;2.55;;
48092;SDS011;33873;47.442;18.902;2023-04-29T05:25:06;7.32;;;3.90;;
48092;SDS011;33873;47.442;18.902;2023-04-29T05:27:34;8.95;;;4.50;;
48092;SDS011;33873;47.442;18.902;2023-04-29T05:30:03;7.45;;;4.55;;
48092;SDS011;33873;47.442;18.902;2023-04-29T05:32:32;9.35;;;5.20;;
48092;SDS011;33873;47.442;18.902;2023-04-29T05:35:00;15.88;;;4.20;;
48092;SDS011;33873;47.442;18.902;2023-04-29T05:37:27;8.95;;;4.85;;
48092;SDS011;33873;47.442;18.902;2023-04-29T05:40:00;10.35;;;4.22;;
48092;SDS011;33873;47.442;18.902;2023-04-29T05:42:28;9.23;;;3.67;;
48092;SDS011;33873;47.442;18.902;2023-04-29T05:44:56;6.93;;;3.33;;
48092;SDS011;33873;47.442;18.902;2023-04-29T05:47:23;10.57;;;4.80;;
48092;SDS011;33873;47.442;18.902;2023-04-29T05:49:51;24.15;;;4.70;;
48092;SDS011;33873;47.442;18.902;2023-04-29T05:52:19;7.47;;;3.33;;
48092;SDS011;33873;47.442;18.902;2023-04-29T05:54:47;7.72;;;3.75;;
48092;SDS011;33873;47.442;18.902;2023-04-29T05:57:16;12.73;;;3.50;;
48092;SDS011;33873;47.442;18.902;2023-04-29T05:59:43;8.63;;;4.05;;
48092;SDS011;33873;47.442;18.902;2023-04-29T06:02:11;10.75;;;3.55;;
48092;SDS011;33873;47.442;18.902;2023-04-29T06:04:39;6.57;;;3.60;;
48092;SDS011;33873;47.442;18.902;2023-04-29T06:07:09;14.18;;;4.93;;
48092;SDS011;33873;47.442;18.902;2023-04-29T06:09:38;7.55;;;3.80;;
48092;SDS011;33873;47.442;18.902;2023-04-29T06:12:06;6.93;;;3.42;;
48092;SDS011;33873;47.442;18.902;2023-04-29T06:14:33;6.05;;;3.15;;
48092;SDS011;33873;47.442;18.902;2023-04-29T06:17:02;11.32;;;2.83;;
48092;SDS011;33873;47.442;18.902;2023-04-29T06:19:30;6.53;;;3.80;;
48092;SDS011;33873;47.442;18.902;2023-04-29T06:21:59;6.05;;;3.15;;
48092;SDS011;33873;47.442;18.902;2023-04-29T06:24:27;7.47;;;2.97;;
48092;SDS011;33873;47.442;18.902;2023-04-29T06:26:56;6.18;;;3.55;;
48092;SDS011;33873;47.442;18.902;2023-04-29T06:29:24;8.88;;;3.60;;
48092;SDS011;33873;47.442;18.902;2023-04-29T06:31:52;5.90;;;3.58;;
48092;SDS011;33873;47.442;18.902;2023-04-29T06:34:20;5.80;;;3.45;;
48092;SDS011;33873;47.442;18.902;2023-04-29T06:36:49;5.78;;;3.20;;
48092;SDS011;33873;47.442;18.902;2023-04-29T06:39:17;6.18;;;3.35;;
48092;SDS011;33873;47.442;18.902;2023-04-29T06:41:44;8.40;;;4.40;;
48092;SDS011;33873;47.442;18.902;2023-04-29T06:44:12;5.35;;;3.28;;
48092;SDS011;33873;47.442;18.902;2023-04-29T06:46:40;5.45;;;2.97;;
48092;SDS011;33873;47.442;18.902;2023-04-29T06:49:08;5.32;;;3.05;;
48092;SDS011;33873;47.442;18.902;2023-04-29T06:51:36;5.18;;;2.75;;
48092;SDS011;33873;47.442;18.902;2023-04-29T06:54:04;5.05;;;3.50;;
48092;SDS011;33873;47.442;18.902;2023-04-29T06:56:31;4.72;;;2.90;;
48092;SDS011;33873;47.442;18.902;2023-04-29T06:58:59;9.73;;;3.08;;
48092;SDS011;33873;47.442;18.902;2023-04-29T07:01:27;4.05;;;3.00;;
48092;SDS011;33873;47.442;18.902;2023-04-29T07:03:54;11.35;;;3.90;;
48092;SDS011;33873;47.442;18.902;2023-04-29T07:06:23;5.80;;;2.95;;
48092;SDS011;33873;47.442;18.902;2023-04-29T07:08:51;7.65;;;3.95;;
48092;SDS011;33873;47.442;18.902;2023-04-29T07:11:22;5.18;;;2.90;;
48092;SDS011;33873;47.442;18.902;2023-04-29T07:13:53;4.12;;;2.87;;
48092;SDS011;33873;47.442;18.902;2023-04-29T07:16:20;8.13;;;4.00;;
48092;SDS011;33873;47.442;18.902;2023-04-29T07:18:48;6.18;;;2.95;;
48092;SDS011;33873;47.442;18.902;2023-04-29T07:21:16;5.43;;;3.58;;
48092;SDS011;33873;47.442;18.902;2023-04-29T07:23:43;8.10;;;4.47;;
48092;SDS011;33873;47.442;18.902;2023-04-29T07:26:14;6.78;;;3.95;;
48092;SDS011;33873;47.442;18.902;2023-04-29T07:28:43;8.82;;;4.07;;
48092;SDS011;33873;47.442;18.902;2023-04-29T07:31:11;4.78;;;2.30;;
48092;SDS011;33873;47.442;18.902;2023-04-29T07:33:40;4.18;;;3.08;;
48092;SDS011;33873;47.442;18.902;2023-04-29T07:36:09;5.25;;;3.20;;
48092;SDS011;33873;47.442;18.902;2023-04-29T07:38:38;4.10;;;2.72;;
48092;SDS011;33873;47.442;18.902;2023-04-29T07:41:06;6.95;;;3.83;;
48092;SDS011;33873;47.442;18.902;2023-04-29T07:43:33;6.00;;;3.62;;
48092;SDS011;33873;47.442;18.902;2023-04-29T07:46:01;6.55;;;4.28;;
48092;SDS011;33873;47.442;18.902;2023-04-29T07:48:28;5.68;;;2.90;;
48092;SDS011;33873;47.442;18.902;2023-04-29T07:50:56;6.32;;;3.42;;
48092;SDS011;33873;47.442;18.902;2023-04-29T07:53:23;6.40;;;3.30;;
48092;SDS011;33873;47.442;18.902;2023-04-29T07:55:51;4.53;;;2.90;;
48092;SDS011;33873;47.442;18.902;2023-04-29T07:58:19;9.50;;;4.10;;
48092;SDS011;33873;47.442;18.902;2023-04-29T08:00:46;5.85;;;3.65;;
48092;SDS011;33873;47.442;18.902;2023-04-29T08:03:14;9.38;;;5.18;;
48092;SDS011;33873;47.442;18.902;2023-04-29T08:05:42;6.75;;;3.22;;
48092;SDS011;33873;47.442;18.902;2023-04-29T08:08:13;4.32;;;2.65;;
48092;SDS011;33873;47.442;18.902;2023-04-29T08:10:42;4.22;;;2.78;;
48092;SDS011;33873;47.442;18.902;2023-04-29T08:13:10;5.65;;;2.92;;
48092;SDS011;33873;47.442;18.902;2023-04-29T08:15:38;5.70;;;3.17;;
48092;SDS011;33873;47.442;18.902;2023-04-29T08:18:06;3.58;;;2.55;;
48092;SDS011;33873;47.442;18.902;2023-04-29T08:20:34;5.37;;;2.53;;
48092;SDS011;33873;47.442;18.902;2023-04-29T08:23:01;5.00;;;3.25;;
48092;SDS011;33873;47.442;18.902;2023-04-29T08:25:29;9.55;;;5.15;;
48092;SDS011;33873;47.442;18.902;2023-04-29T08:27:56;7.30;;;2.85;;
48092;SDS011;33873;47.442;18.902;2023-04-29T08:30:24;5.40;;;3.15;;
48092;SDS011;33873;47.442;18.902;2023-04-29T08:32:51;8.40;;;4.65;;
48092;SDS011;33873;47.442;18.902;2023-04-29T08:35:19;4.87;;;3.22;;
48092;SDS011;33873;47.442;18.902;2023-04-29T08:37:46;4.85;;;3.45;;
48092;SDS011;33873;47.442;18.902;2023-04-29T08:40:14;9.70;;;3.35;;
48092;SDS011;33873;47.442;18.902;2023-04-29T08:42:42;7.10;;;3.58;;
48092;SDS011;33873;47.442;18.902;2023-04-29T08:45:14;6.60;;;2.97;;
48092;SDS011;33873;47.442;18.902;2023-04-29T08:47:45;5.28;;;2.90;;
48092;SDS011;33873;47.442;18.902;2023-04-29T08:50:13;4.25;;;2.65;;
48092;SDS011;33873;47.442;18.902;2023-04-29T08:52:41;4.45;;;2.55;;
48092;SDS011;33873;47.442;18.902;2023-04-29T08:55:09;3.62;;;2.60;;
48092;SDS011;33873;47.442;18.902;2023-04-29T08:57:36;8.23;;;2.40;;
48092;SDS011;33873;47.442;18.902;2023-04-29T09:00:06;6.72;;;3.35;;
48092;SDS011;33873;47.442;18.902;2023-04-29T09:02:38;6.30;;;3.72;;
48092;SDS011;33873;47.442;18.902;2023-04-29T09:05:10;6.15;;;3.12;;
48092;SDS011;33873;47.442;18.902;2023-04-29T09:07:40;7.07;;;3.22;;
48092;SDS011;33873;47.442;18.902;2023-04-29T09:10:08;5.10;;;3.28;;
48092;SDS011;33873;47.442;18.902;2023-04-29T09:12:36;5.87;;;3.05;;
48092;SDS011;33873;47.442;18.902;2023-04-29T09:15:03;11.40;;;3.95;;
48092;SDS011;33873;47.442;18.902;2023-04-29T09:22:56;4.40;;;2.00;;
48092;SDS011;33873;47.442;18.902;2023-04-29T09:25:25;5.10;;;2.90;;
48092;SDS011;33873;47.442;18.902;2023-04-29T09:27:53;7.10;;;3.35;;
48092;SDS011;33873;47.442;18.902;2023-04-29T09:30:21;5.20;;;3.00;;
48092;SDS011;33873;47.442;18.902;2023-04-29T09:33:06;5.15;;;3.05;;
48092;SDS011;33873;47.442;18.902;2023-04-29T09:35:34;6.97;;;3.22;;
48092;SDS011;33873;47.442;18.902;2023-04-29T09:38:12;4.65;;;3.12;;
48092;SDS011;33873;47.442;18.902;2023-04-29T09:40:41;6.10;;;2.87;;
48092;SDS011;33873;47.442;18.902;2023-04-29T09:43:24;5.03;;;2.65;;
48092;SDS011;33873;47.442;18.902;2023-04-29T09:45:52;11.00;;;4.15;;
48092;SDS011;33873;47.442;18.902;2023-04-29T09:48:19;7.43;;;3.25;;
48092;SDS011;33873;47.442;18.902;2023-04-29T09:50:58;6.70;;;3.67;;
48092;SDS011;33873;47.442;18.902;2023-04-29T09:53:28;6.55;;;3.33;;
48092;SDS011;33873;47.442;18.902;2023-04-29T09:56:00;5.32;;;2.72;;
48092;SDS011;33873;47.442;18.902;2023-04-29T09:58:29;5.62;;;2.78;;
48092;SDS011;33873;47.442;18.902;2023-04-29T10:01:00;8.43;;;3.30;;
48092;SDS011;33873;47.442;18.902;2023-04-29T10:03:30;7.87;;;2.80;;
48092;SDS011;33873;47.442;18.902;2023-04-29T10:06:00;10.98;;;3.25;;
48092;SDS011;33873;47.442;18.902;2023-04-29T10:08:28;5.82;;;2.85;;
48092;SDS011;33873;47.442;18.902;2023-04-29T10:11:03;10.15;;;3.30;;
48092;SDS011;33873;47.442;18.902;2023-04-29T10:13:33;8.57;;;3.20;;
48092;SDS011;33873;47.442;18.902;2023-04-29T10:18:58;4.55;;;2.85;;
48092;SDS011;33873;47.442;18.902;2023-04-29T10:21:27;5.00;;;2.97;;
48092;SDS011;33873;47.442;18.902;2023-04-29T10:23:58;6.12;;;3.40;;
48092;SDS011;33873;47.442;18.902;2023-04-29T10:26:28;4.28;;;2.28;;
48092;SDS011;33873;47.442;18.902;2023-04-29T10:28:58;5.18;;;2.72;;
48092;SDS011;33873;47.442;18.902;2023-04-29T10:31:26;8.02;;;3.28;;
48092;SDS011;33873;47.442;18.902;2023-04-29T10:33:55;8.52;;;4.30;;
48092;SDS011;33873;47.442;18.902;2023-04-29T10:36:24;4.28;;;2.30;;
48092;SDS011;33873;47.442;18.902;2023-04-29T10:38:53;4.87;;;3.15;;
48092;SDS011;33873;47.442;18.902;2023-04-29T10:41:22;5.78;;;3.15;;
48092;SDS011;33873;47.442;18.902;2023-04-29T10:43:53;5.95;;;2.33;;
48092;SDS011;33873;47.442;18.902;2023-04-29T10:46:22;4.35;;;2.55;;
48092;SDS011;33873;47.442;18.902;2023-04-29T10:49:01;3.75;;;2.22;;
48092;SDS011;33873;47.442;18.902;2023-04-29T10:51:31;6.57;;;2.85;;
48092;SDS011;33873;47.442;18.902;2023-04-29T10:59:11;5.28;;;2.90;;
48092;SDS011;33873;47.442;18.902;2023-04-29T11:01:44;5.70;;;3.03;;
48092;SDS011;33873;47.442;18.902;2023-04-29T11:04:13;8.35;;;2.90;;
48092;SDS011;33873;47.442;18.902;2023-04-29T11:09:14;5.87;;;3.17;;
48092;SDS011;33873;47.442;18.902;2023-04-29T11:14:22;4.95;;;2.92;;
48092;SDS011;33873;47.442;18.902;2023-04-29T11:16:58;7.78;;;3.92;;
48092;SDS011;33873;47.442;18.902;2023-04-29T11:19:31;6.35;;;3.35;;
48092;SDS011;33873;47.442;18.902;2023-04-29T11:22:08;7.37;;;3.78;;
48092;SDS011;33873;47.442;18.902;2023-04-29T11:27:25;5.30;;;3.05;;
48092;SDS011;33873;47.442;18.902;2023-04-29T11:30:02;6.80;;;3.85;;
48092;SDS011;33873;47.442;18.902;2023-04-29T11:32:34;6.20;;;3.87;;
48092;SDS011;33873;47.442;18.902;2023-04-29T11:35:09;5.25;;;3.17;;
48092;SDS011;33873;47.442;18.902;2023-04-29T11:37:39;7.10;;;3.53;;
48092;SDS011;33873;47.442;18.902;2023-04-29T11:40:08;6.00;;;3.62;;
48092;SDS011;33873;47.442;18.902;2023-04-29T11:42:45;8.90;;;3.92;;
48092;SDS011;33873;47.442;18.902;2023-04-29T11:45:17;4.82;;;2.80;;
48092;SDS011;33873;47.442;18.902;2023-04-29T11:47:45;4.65;;;2.75;;
48092;SDS011;33873;47.442;18.902;2023-04-29T11:50:14;4.10;;;2.97;;
48092;SDS011;33873;47.442;18.902;2023-04-29T11:52:45;5.25;;;3.10;;
48092;SDS011;33873;47.442;18.902;2023-04-29T11:55:13;6.28;;;3.70;;
48092;SDS011;33873;47.442;18.902;2023-04-29T11:57:41;6.30;;;3.83;;
48092;SDS011;33873;47.442;18.902;2023-04-29T12:00:12;4.37;;;2.60;;
48092;SDS011;33873;47.442;18.902;2023-04-29T12:02:44;6.43;;;3.10;;
48092;SDS011;33873;47.442;18.902;2023-04-29T12:05:14;6.68;;;3.00;;
48092;SDS011;33873;47.442;18.902;2023-04-29T12:07:44;6.45;;;3.47;;
48092;SDS011;33873;47.442;18.902;2023-04-29T12:10:11;6.22;;;3.45;;
48092;SDS011;33873;47.442;18.902;2023-04-29T12:12:39;6.28;;;3.28;;
48092;SDS011;33873;47.442;18.902;2023-04-29T12:15:13;4.93;;;2.67;;
48092;SDS011;33873;47.442;18.902;2023-04-29T12:17:41;10.45;;;4.25;;
48092;SDS011;33873;47.442;18.902;2023-04-29T12:20:08;5.93;;;3.35;;
48092;SDS011;33873;47.442;18.902;2023-04-29T12:22:37;4.37;;;2.85;;
48092;SDS011;33873;47.442;18.902;2023-04-29T12:25:05;8.57;;;3.33;;
48092;SDS011;33873;47.442;18.902;2023-04-29T12:27:34;6.87;;;3.12;;
48092;SDS011;33873;47.442;18.902;2023-04-29T12:30:05;6.62;;;3.33;;
48092;SDS011;33873;47.442;18.902;2023-04-29T12:32:34;7.05;;;3.85;;
48092;SDS011;33873;47.442;18.902;2023-04-29T12:35:03;9.82;;;3.70;;
48092;SDS011;33873;47.442;18.902;2023-04-29T12:37:31;6.15;;;3.50;;
48092;SDS011;33873;47.442;18.902;2023-04-29T12:39:59;6.35;;;3.33;;
48092;SDS011;33873;47.442;18.902;2023-04-29T12:42:33;5.87;;;3.70;;
48092;SDS011;33873;47.442;18.902;2023-04-29T12:45:01;4.22;;;2.37;;
48092;SDS011;33873;47.442;18.902;2023-04-29T12:47:33;7.10;;;3.78;;
48092;SDS011;33873;47.442;18.902;2023-04-29T12:50:04;4.72;;;2.85;;
48092;SDS011;33873;47.442;18.902;2023-04-29T12:52:33;4.75;;;2.75;;
48092;SDS011;33873;47.442;18.902;2023-04-29T12:55:03;7.03;;;3.45;;
48092;SDS011;33873;47.442;18.902;2023-04-29T12:57:31;5.05;;;2.75;;
48092;SDS011;33873;47.442;18.902;2023-04-29T12:59:58;8.55;;;3.45;;
48092;SDS011;33873;47.442;18.902;2023-04-29T13:02:26;6.20;;;2.75;;
48092;SDS011;33873;47.442;18.902;2023-04-29T13:04:54;9.52;;;4.03;;
48092;SDS011;33873;47.442;18.902;2023-04-29T13:07:23;6.47;;;3.28;;
48092;SDS011;33873;47.442;18.902;2023-04-29T13:09:50;7.00;;;3.08;;
48092;SDS011;33873;47.442;18.902;2023-04-29T13:12:17;5.72;;;2.70;;
48092;SDS011;33873;47.442;18.902;2023-04-29T13:14:45;6.72;;;4.05;;
48092;SDS011;33873;47.442;18.902;2023-04-29T13:17:12;7.30;;;3.53;;
48092;SDS011;33873;47.442;18.902;2023-04-29T13:19:40;7.57;;;3.08;;
48092;SDS011;33873;47.442;18.902;2023-04-29T13:22:18;5.68;;;3.37;;
48092;SDS011;33873;47.442;18.902;2023-04-29T13:24:46;6.97;;;3.40;;
48092;SDS011;33873;47.442;18.902;2023-04-29T13:27:13;7.70;;;3.25;;
48092;SDS011;33873;47.442;18.902;2023-04-29T13:29:41;6.45;;;4.00;;
48092;SDS011;33873;47.442;18.902;2023-04-29T13:32:08;4.03;;;2.30;;
48092;SDS011;33873;47.442;18.902;2023-04-29T13:34:36;5.15;;;3.05;;
48092;SDS011;33873;47.442;18.902;2023-04-29T13:37:04;6.15;;;2.37;;
48092;SDS011;33873;47.442;18.902;2023-04-29T13:39:32;9.43;;;3.30;;
48092;SDS011;33873;47.442;18.902;2023-04-29T13:42:04;5.00;;;3.12;;
48092;SDS011;33873;47.442;18.902;2023-04-29T13:44:32;8.93;;;3.53;;
48092;SDS011;33873;47.442;18.902;2023-04-29T13:47:18;5.75;;;3.05;;
48092;SDS011;33873;47.442;18.902;2023-04-29T13:49:52;5.28;;;2.72;;
48092;SDS011;33873;47.442;18.902;2023-04-29T13:52:40;5.53;;;3.17;;
48092;SDS011;33873;47.442;18.902;2023-04-29T13:55:10;7.05;;;2.72;;
48092;SDS011;33873;47.442;18.902;2023-04-29T13:57:58;6.97;;;3.37;;
48092;SDS011;33873;47.442;18.902;2023-04-29T14:00:46;7.10;;;3.78;;
48092;SDS011;33873;47.442;18.902;2023-04-29T14:03:33;8.20;;;3.37;;
48092;SDS011;33873;47.442;18.902;2023-04-29T14:06:02;5.93;;;3.62;;
48092;SDS011;33873;47.442;18.902;2023-04-29T14:08:29;4.25;;;3.03;;
48092;SDS011;33873;47.442;18.902;2023-04-29T14:10:57;7.50;;;2.97;;
48092;SDS011;33873;47.442;18.902;2023-04-29T14:13:25;6.55;;;3.47;;
48092;SDS011;33873;47.442;18.902;2023-04-29T14:15:52;8.18;;;3.40;;
48092;SDS011;33873;47.442;18.902;2023-04-29T14:18:20;7.72;;;2.75;;
48092;SDS011;33873;47.442;18.902;2023-04-29T14:20:48;5.60;;;2.85;;
48092;SDS011;33873;47.442;18.902;2023-04-29T14:23:15;6.45;;;3.05;;
48092;SDS011;33873;47.442;18.902;2023-04-29T14:25:43;7.00;;;3.62;;
48092;SDS011;33873;47.442;18.902;2023-04-29T14:28:11;5.80;;;2.78;;
48092;SDS011;33873;47.442;18.902;2023-04-29T14:30:38;6.12;;;2.97;;
48092;SDS011;33873;47.442;18.902;2023-04-29T14:33:07;6.30;;;3.15;;
48092;SDS011;33873;47.442;18.902;2023-04-29T14:35:35;9.80;;;4.15;;
48092;SDS011;33873;47.442;18.902;2023-04-29T14:38:02;8.27;;;3.60;;
48092;SDS011;33873;47.442;18.902;2023-04-29T14:40:30;5.40;;;3.12;;
48092;SDS011;33873;47.442;18.902;2023-04-29T14:42:57;7.87;;;3.28;;
48092;SDS011;33873;47.442;18.902;2023-04-29T14:45:25;13.48;;;3.58;;
48092;SDS011;33873;47.442;18.902;2023-04-29T14:47:52;7.50;;;3.47;;
48092;SDS011;33873;47.442;18.902;2023-04-29T14:50:20;6.47;;;3.03;;
48092;SDS011;33873;47.442;18.902;2023-04-29T14:52:49;3.87;;;2.33;;
48092;SDS011;33873;47.442;18.902;2023-04-29T14:55:17;5.85;;;3.03;;
48092;SDS011;33873;47.442;18.902;2023-04-29T14:57:44;3.12;;;2.05;;
48092;SDS011;33873;47.442;18.902;2023-04-29T15:00:12;5.10;;;2.87;;
48092;SDS011;33873;47.442;18.902;2023-04-29T15:02:41;4.80;;;2.70;;
48092;SDS011;33873;47.442;18.902;2023-04-29T15:05:09;5.72;;;3.00;;
48092;SDS011;33873;47.442;18.902;2023-04-29T15:07:36;5.40;;;2.92;;
48092;SDS011;33873;47.442;18.902;2023-04-29T15:10:04;12.85;;;3.83;;
48092;SDS011;33873;47.442;18.902;2023-04-29T15:12:33;6.75;;;3.50;;